createdAt,value
2023-03-17T00:01:12.887Z,3.85
2023-03-17T00:03:41.934Z,3.53
2023-03-17T00:06:30.001Z,3.10
2023-03-17T00:08:57.659Z,2.72
2023-03-17T00:11:25.488Z,2.85
2023-03-17T00:13:53.030Z,2.42
2023-03-17T00:16:27.380Z,2.60
2023-03-17T00:18:55.343Z,2.13
2023-03-17T00:21:28.101Z,2.45
2023-03-17T00:23:56.318Z,2.38
2023-03-17T00:26:24.282Z,2.13
2023-03-17T00:28:53.075Z,2.45
2023-03-17T00:31:22.302Z,2.60
2023-03-17T00:33:50.490Z,2.42
2023-03-17T00:36:19.430Z,2.22
2023-03-17T00:38:47.130Z,2.38
2023-03-17T00:41:14.461Z,2.55
2023-03-17T00:43:41.774Z,2.45
2023-03-17T00:46:22.063Z,2.33
2023-03-17T00:48:49.388Z,2.53
2023-03-17T00:51:16.680Z,2.30
2023-03-17T00:53:44.249Z,2.28
2023-03-17T00:56:15.615Z,2.17
2023-03-17T00:58:43.639Z,2.70
2023-03-17T01:01:11.440Z,1.83
2023-03-17T01:03:38.993Z,2.30
2023-03-17T01:06:08.261Z,2.25
2023-03-17T01:08:36.872Z,1.95
2023-03-17T01:11:04.249Z,2.42
2023-03-17T01:13:31.513Z,2.15
2023-03-17T01:15:58.812Z,2.10
2023-03-17T01:18:26.174Z,2.33
2023-03-17T01:20:53.473Z,2.53
2023-03-17T01:23:22.262Z,2.13
2023-03-17T01:25:50.284Z,2.17
2023-03-17T01:28:19.518Z,2.15
2023-03-17T01:30:47.381Z,2.03
2023-03-17T01:33:14.926Z,2.50
2023-03-17T01:35:43.933Z,2.72
2023-03-17T01:38:11.666Z,2.95
2023-03-17T01:40:42.992Z,2.90
2023-03-17T01:43:10.160Z,2.58
2023-03-17T01:45:56.258Z,2.25
2023-03-17T01:48:23.662Z,2.08
2023-03-17T01:50:51.755Z,2.22
2023-03-17T01:53:19.294Z,2.47
2023-03-17T01:55:47.306Z,2.10
2023-03-17T01:58:15.707Z,2.30
2023-03-17T02:00:44.065Z,2.60
2023-03-17T02:03:11.735Z,2.60
2023-03-17T02:05:39.700Z,2.70
2023-03-17T02:08:11.980Z,2.45
2023-03-17T02:10:39.878Z,2.40
2023-03-17T02:13:08.190Z,3.05
2023-03-17T02:15:40.421Z,3.13
2023-03-17T02:18:08.051Z,2.40
2023-03-17T02:20:35.790Z,2.40
2023-03-17T02:23:04.324Z,2.83
2023-03-17T02:25:31.683Z,2.25
2023-03-17T02:28:02.162Z,2.80
2023-03-17T02:30:29.752Z,2.38
2023-03-17T02:32:57.241Z,2.38
2023-03-17T02:35:24.510Z,2.10
2023-03-17T02:37:54.593Z,2.50
2023-03-17T02:40:22.199Z,2.83
2023-03-17T02:42:49.615Z,2.60
2023-03-17T02:45:16.952Z,3.20
2023-03-17T02:47:44.216Z,2.85
2023-03-17T02:50:18.185Z,2.47
2023-03-17T02:52:45.506Z,3.25
2023-03-17T02:55:12.811Z,2.28
2023-03-17T02:57:40.050Z,2.15
2023-03-17T03:00:10.484Z,2.53
2023-03-17T03:02:38.188Z,2.53
2023-03-17T03:05:06.705Z,2.47
2023-03-17T03:07:33.958Z,2.75
2023-03-17T03:10:02.780Z,2.97
2023-03-17T03:12:29.985Z,2.80
2023-03-17T03:14:57.237Z,2.67
2023-03-17T03:17:24.454Z,3.35
2023-03-17T03:19:51.696Z,2.70
2023-03-17T03:22:18.950Z,3.72
2023-03-17T03:24:46.173Z,2.38
2023-03-17T03:27:13.413Z,2.33
2023-03-17T03:29:41.805Z,3.08
2023-03-17T03:32:09.079Z,2.63
2023-03-17T03:34:36.347Z,2.70
2023-03-17T03:37:03.623Z,2.55
2023-03-17T03:39:31.094Z,3.10
2023-03-17T03:41:58.492Z,3.20
2023-03-17T03:44:26.014Z,2.92
2023-03-17T03:46:53.353Z,2.85
2023-03-17T03:49:21.176Z,2.72
2023-03-17T03:51:48.439Z,2.42
2023-03-17T03:54:15.660Z,2.88
2023-03-17T03:56:42.886Z,2.60
2023-03-17T03:59:10.149Z,2.60
2023-03-17T04:01:37.389Z,2.80
2023-03-17T04:04:04.741Z,2.67
2023-03-17T04:06:32.121Z,2.78
2023-03-17T04:08:59.335Z,2.65
2023-03-17T04:11:26.611Z,2.97
2023-03-17T04:13:53.823Z,2.47
2023-03-17T04:16:21.317Z,2.70
2023-03-17T04:18:48.683Z,3.08
2023-03-17T04:21:19.017Z,3.25
2023-03-17T04:23:46.672Z,2.60
2023-03-17T04:26:13.888Z,3.17
2023-03-17T04:28:41.265Z,3.03
2023-03-17T04:31:09.595Z,3.15
2023-03-17T04:33:36.890Z,3.10
2023-03-17T04:36:04.267Z,3.17
2023-03-17T04:38:31.558Z,2.70
2023-03-17T04:40:58.764Z,3.08
2023-03-17T04:43:27.240Z,2.78
2023-03-17T04:45:54.595Z,2.45
2023-03-17T04:48:21.856Z,2.95
2023-03-17T04:50:49.275Z,3.00
2023-03-17T04:53:16.557Z,2.97
2023-03-17T04:55:43.794Z,3.20
2023-03-17T04:58:15.484Z,2.90
2023-03-17T05:00:48.431Z,2.63
2023-03-17T05:03:26.657Z,3.20
2023-03-17T05:05:54.827Z,2.67
2023-03-17T05:08:22.102Z,2.90
2023-03-17T05:10:49.369Z,2.30
2023-03-17T05:13:16.719Z,2.67
2023-03-17T05:15:53.788Z,3.70
2023-03-17T05:18:24.329Z,2.50
2023-03-17T05:20:51.868Z,2.80
2023-03-17T05:23:19.130Z,2.60
2023-03-17T05:25:46.989Z,2.90
2023-03-17T05:28:14.262Z,2.58
2023-03-17T05:30:43.214Z,2.70
2023-03-17T05:33:10.648Z,2.47
2023-03-17T05:35:37.985Z,2.50
2023-03-17T05:38:05.248Z,2.47
2023-03-17T05:40:32.805Z,3.22
2023-03-17T05:43:00.183Z,2.90
2023-03-17T05:45:27.440Z,2.80
2023-03-17T05:47:54.795Z,2.75
2023-03-17T05:50:22.245Z,2.50
2023-03-17T05:52:49.559Z,2.58
2023-03-17T05:55:17.646Z,2.38
2023-03-17T05:57:44.877Z,3.90
2023-03-17T06:00:13.395Z,3.03
2023-03-17T06:02:40.966Z,4.15
2023-03-17T06:05:08.964Z,2.42
2023-03-17T06:07:50.960Z,2.58
2023-03-17T06:10:20.964Z,2.70
2023-03-17T06:12:48.181Z,2.45
2023-03-17T06:15:16.756Z,2.83
2023-03-17T06:17:44.075Z,2.83
2023-03-17T06:20:12.017Z,3.00
2023-03-17T06:22:46.265Z,2.53
2023-03-17T06:25:19.633Z,2.65
2023-03-17T06:27:46.901Z,2.70
2023-03-17T06:30:14.311Z,2.30
2023-03-17T06:32:41.684Z,3.00
2023-03-17T06:35:09.119Z,2.95
2023-03-17T06:37:36.628Z,2.47
2023-03-17T06:40:05.628Z,2.53
2023-03-17T06:42:32.963Z,3.78
2023-03-17T06:45:00.347Z,2.67
2023-03-17T06:47:28.344Z,2.58
2023-03-17T06:49:55.725Z,2.70
2023-03-17T06:52:23.192Z,2.80
2023-03-17T06:54:50.421Z,2.80
2023-03-17T06:57:17.741Z,2.60
2023-03-17T06:59:45.909Z,2.65
2023-03-17T07:02:13.263Z,2.83
2023-03-17T07:04:40.730Z,2.72
2023-03-17T07:07:08.438Z,2.45
2023-03-17T07:09:35.791Z,3.03
2023-03-17T07:12:06.706Z,2.40
2023-03-17T07:14:35.657Z,2.35
2023-03-17T07:17:06.448Z,2.70
2023-03-17T07:19:35.203Z,3.08
2023-03-17T07:22:02.488Z,2.20
2023-03-17T07:24:29.848Z,2.50
2023-03-17T07:26:57.113Z,2.30
2023-03-17T07:29:24.699Z,2.60
2023-03-17T07:31:52.060Z,3.67
2023-03-17T07:34:19.413Z,2.75
2023-03-17T07:36:46.719Z,2.20
2023-03-17T07:39:14.039Z,2.60
2023-03-17T07:41:41.467Z,2.65
2023-03-17T07:44:09.674Z,2.20
2023-03-17T07:46:36.953Z,2.63
2023-03-17T07:49:04.209Z,2.20
2023-03-17T07:51:31.492Z,2.25
2023-03-17T07:54:03.868Z,2.65
2023-03-17T07:56:32.179Z,2.28
2023-03-17T07:59:00.034Z,2.20
2023-03-17T08:01:28.007Z,2.15
2023-03-17T08:03:56.685Z,2.20
2023-03-17T08:06:27.751Z,2.45
2023-03-17T08:08:55.885Z,2.20
2023-03-17T08:11:23.621Z,1.85
2023-03-17T08:13:51.131Z,2.65
2023-03-17T08:16:18.516Z,2.40
2023-03-17T08:18:45.774Z,2.80
2023-03-17T08:21:14.811Z,2.40
2023-03-17T08:23:43.379Z,2.83
2023-03-17T08:26:10.690Z,2.63
2023-03-17T08:28:38.605Z,2.42
2023-03-17T08:31:12.302Z,2.58
2023-03-17T08:33:41.033Z,2.80
2023-03-17T08:36:09.510Z,2.50
2023-03-17T08:38:40.749Z,2.72
2023-03-17T08:41:10.049Z,2.58
2023-03-17T08:43:38.324Z,3.10
2023-03-17T08:46:07.817Z,2.17
2023-03-17T08:48:36.532Z,2.38
2023-03-17T08:51:04.767Z,2.47
2023-03-17T08:53:35.141Z,1.98
2023-03-17T08:56:04.725Z,2.20
2023-03-17T08:58:32.062Z,2.30
2023-03-17T09:01:00.593Z,2.42
2023-03-17T09:03:29.043Z,2.00
2023-03-17T09:05:56.394Z,2.50
2023-03-17T09:08:23.731Z,2.38
2023-03-17T09:10:52.113Z,2.60
2023-03-17T09:13:19.409Z,2.72
2023-03-17T09:15:51.264Z,2.78
2023-03-17T09:18:21.903Z,2.22
2023-03-17T09:20:49.653Z,2.22
2023-03-17T09:23:17.079Z,2.20
2023-03-17T09:25:44.422Z,2.47
2023-03-17T09:28:12.277Z,2.70
2023-03-17T09:30:42.777Z,2.58
2023-03-17T09:33:12.033Z,3.08
2023-03-17T09:35:40.118Z,2.63
2023-03-17T09:38:08.293Z,2.20
2023-03-17T09:40:55.606Z,2.53
2023-03-17T09:43:22.845Z,2.42
2023-03-17T09:45:50.680Z,2.50
2023-03-17T09:48:36.864Z,2.67
2023-03-17T09:51:05.805Z,3.75
2023-03-17T09:53:45.310Z,1.95
2023-03-17T09:56:14.220Z,2.13
2023-03-17T09:58:43.099Z,2.22
2023-03-17T10:01:12.901Z,2.63
2023-03-17T10:03:40.240Z,2.50
2023-03-17T10:06:33.809Z,2.78
2023-03-17T10:09:13.824Z,2.65
2023-03-17T10:11:46.807Z,2.38
2023-03-17T10:14:23.799Z,2.50
2023-03-17T10:17:06.287Z,2.50
2023-03-17T10:19:36.350Z,2.53
2023-03-17T10:22:06.209Z,1.92
2023-03-17T10:24:34.649Z,2.00
2023-03-17T10:27:04.939Z,2.65
2023-03-17T10:29:32.650Z,2.63
2023-03-17T10:32:00.046Z,2.72
2023-03-17T10:34:29.735Z,2.10
2023-03-17T10:37:07.387Z,2.83
2023-03-17T10:39:42.263Z,2.33
2023-03-17T10:42:11.585Z,2.85
2023-03-17T10:44:39.044Z,2.25
2023-03-17T10:47:06.440Z,2.33
2023-03-17T10:49:37.835Z,2.50
2023-03-17T10:52:16.596Z,2.05
2023-03-17T10:54:48.402Z,2.58
2023-03-17T10:57:15.994Z,2.60
2023-03-17T10:59:44.898Z,2.20
2023-03-17T11:02:26.389Z,2.92
2023-03-17T11:05:01.383Z,3.17
2023-03-17T11:07:31.500Z,2.45
2023-03-17T11:09:59.965Z,3.00
2023-03-17T11:12:27.286Z,4.57
2023-03-17T11:15:06.108Z,2.90
2023-03-17T11:17:48.837Z,2.50
2023-03-17T11:20:37.270Z,2.90
2023-03-17T11:23:23.887Z,2.67
2023-03-17T11:25:56.393Z,2.70
2023-03-17T11:28:28.212Z,2.63
2023-03-17T11:31:01.374Z,2.90
2023-03-17T11:33:37.076Z,3.35
2023-03-17T11:36:04.281Z,2.78
2023-03-17T11:38:37.194Z,2.53
2023-03-17T11:41:09.133Z,3.22
2023-03-17T11:43:36.392Z,3.45
2023-03-17T11:46:09.728Z,3.30
2023-03-17T11:48:55.749Z,2.85
2023-03-17T11:51:27.604Z,3.03
2023-03-17T11:54:01.186Z,3.05
2023-03-17T11:56:34.255Z,2.78
2023-03-17T11:59:04.788Z,3.10
2023-03-17T12:01:45.834Z,3.05
2023-03-17T12:04:16.634Z,3.17
2023-03-17T12:06:47.584Z,3.05
2023-03-17T12:09:29.881Z,2.40
2023-03-17T12:11:57.786Z,2.58
2023-03-17T12:14:30.865Z,2.80
2023-03-17T12:17:05.015Z,3.33
2023-03-17T12:19:40.685Z,2.65
2023-03-17T12:22:26.361Z,3.40
2023-03-17T12:25:12.148Z,2.85
2023-03-17T12:27:45.595Z,3.17
2023-03-17T12:30:33.852Z,2.67
2023-03-17T12:33:07.486Z,2.80
2023-03-17T12:35:36.959Z,3.70
2023-03-17T12:38:19.482Z,2.83
2023-03-17T12:41:05.750Z,3.35
2023-03-17T12:43:37.597Z,2.80
2023-03-17T12:46:14.480Z,3.15
2023-03-17T12:48:45.006Z,2.55
2023-03-17T12:51:25.910Z,3.90
2023-03-17T12:53:53.608Z,5.30
2023-03-17T12:56:27.013Z,3.47
2023-03-17T12:58:55.862Z,3.25
2023-03-17T13:01:23.251Z,3.03
2023-03-17T13:03:57.281Z,3.55
2023-03-17T13:06:25.231Z,3.38
2023-03-17T13:08:53.930Z,3.35
2023-03-17T13:11:29.592Z,2.85
2023-03-17T13:14:17.501Z,3.63
2023-03-17T13:16:49.596Z,3.08
2023-03-17T13:19:22.696Z,3.10
2023-03-17T13:21:51.682Z,3.28
2023-03-17T13:24:18.970Z,2.65
2023-03-17T13:26:55.399Z,2.58
2023-03-17T13:29:27.566Z,2.72
2023-03-17T13:32:13.954Z,2.50
2023-03-17T13:34:52.950Z,2.17
2023-03-17T13:37:35.860Z,2.72
2023-03-17T13:40:18.344Z,1.90
2023-03-17T13:43:04.005Z,2.35
2023-03-17T13:45:34.043Z,2.00
2023-03-17T13:48:19.906Z,2.00
2023-03-17T13:50:47.407Z,2.13
2023-03-17T13:53:15.939Z,2.10
2023-03-17T13:55:44.193Z,2.42
2023-03-17T13:58:12.315Z,2.17
2023-03-17T14:00:47.440Z,2.45
2023-03-17T14:05:43.468Z,2.30
2023-03-17T14:08:32.321Z,2.08
2023-03-17T14:11:00.777Z,2.40
2023-03-17T14:13:33.228Z,2.30
2023-03-17T14:16:08.202Z,2.70
2023-03-17T14:18:38.037Z,2.10
2023-03-17T14:21:10.517Z,2.85
2023-03-17T14:23:38.794Z,2.25
2023-03-17T14:26:07.816Z,2.13
2023-03-17T14:28:35.791Z,2.50
2023-03-17T14:31:03.096Z,2.38
2023-03-17T14:33:31.444Z,2.38
2023-03-17T14:36:00.011Z,2.22
2023-03-17T14:38:28.660Z,1.92
2023-03-17T14:41:08.211Z,1.98
2023-03-17T14:43:36.251Z,2.30
2023-03-17T14:46:08.140Z,2.22
2023-03-17T14:48:37.117Z,2.50
2023-03-17T14:51:07.478Z,2.05
2023-03-17T14:53:43.159Z,2.20
2023-03-17T14:56:10.708Z,2.22
2023-03-17T14:58:41.255Z,2.47
2023-03-17T15:01:19.257Z,2.20
2023-03-17T15:03:57.234Z,2.22
2023-03-17T15:06:28.466Z,3.13
2023-03-17T15:08:58.459Z,2.58
2023-03-17T15:11:36.522Z,1.98
2023-03-17T15:14:14.086Z,1.98
2023-03-17T15:16:49.801Z,3.47
2023-03-17T15:19:39.515Z,2.45
2023-03-17T15:22:22.822Z,2.38
2023-03-17T15:25:13.390Z,2.22
2023-03-17T15:27:40.729Z,2.08
2023-03-17T15:30:08.230Z,2.53
2023-03-17T15:32:35.805Z,2.05
2023-03-17T15:35:03.223Z,2.28
2023-03-17T15:37:34.615Z,2.00
2023-03-17T15:40:03.538Z,2.17
2023-03-17T15:42:32.775Z,2.13
2023-03-17T15:45:03.913Z,2.60
2023-03-17T15:47:37.026Z,4.10
2023-03-17T15:50:24.705Z,2.83
2023-03-17T15:53:01.228Z,3.38
2023-03-17T15:55:29.885Z,2.95
2023-03-17T15:57:57.606Z,2.53
2023-03-17T16:00:26.648Z,2.75
2023-03-17T16:02:54.581Z,3.28
2023-03-17T16:05:24.130Z,2.08
2023-03-17T16:07:51.536Z,2.33
2023-03-17T16:10:28.979Z,2.10
2023-03-17T16:12:56.593Z,2.33
2023-03-17T16:15:25.785Z,2.65
2023-03-17T16:17:54.453Z,2.95
2023-03-17T16:20:22.469Z,4.15
2023-03-17T16:22:50.385Z,2.97
2023-03-17T16:25:25.512Z,3.00
2023-03-17T16:30:22.015Z,2.30
2023-03-17T16:32:49.711Z,2.30
2023-03-17T16:35:18.049Z,2.50
2023-03-17T16:37:45.680Z,2.00
2023-03-17T16:40:33.308Z,2.08
2023-03-17T16:43:00.843Z,3.03
2023-03-17T16:45:33.086Z,3.72
2023-03-17T16:48:01.160Z,3.95
2023-03-17T16:50:30.736Z,4.47
2023-03-17T16:52:58.447Z,2.10
2023-03-17T16:55:27.223Z,2.30
2023-03-17T16:57:56.668Z,1.80
2023-03-17T17:00:25.637Z,2.22
2023-03-17T17:02:53.327Z,3.15
2023-03-17T17:05:25.426Z,2.50
2023-03-17T17:07:55.693Z,2.75
2023-03-17T17:10:24.086Z,2.50
2023-03-17T17:12:51.322Z,2.60
2023-03-17T17:15:19.570Z,3.45
2023-03-17T17:17:48.458Z,4.30
2023-03-17T17:20:21.398Z,5.50
2023-03-17T17:22:49.480Z,3.45
2023-03-17T17:25:17.310Z,2.45
2023-03-17T17:27:45.573Z,2.83
2023-03-17T17:30:14.646Z,2.92
2023-03-17T17:32:41.914Z,2.33
2023-03-17T17:35:09.801Z,2.05
2023-03-17T17:37:37.307Z,2.00
2023-03-17T17:40:05.931Z,2.00
2023-03-17T17:42:33.444Z,2.78
2023-03-17T17:45:00.773Z,2.00
2023-03-17T17:47:32.196Z,2.63
2023-03-17T17:50:00.084Z,3.42
2023-03-17T17:52:27.391Z,4.05
2023-03-17T17:54:54.611Z,4.30
2023-03-17T17:57:21.909Z,3.40
2023-03-17T17:59:49.124Z,3.05
2023-03-17T18:02:16.459Z,5.05
2023-03-17T18:04:43.757Z,3.47
2023-03-17T18:07:11.105Z,3.50
2023-03-17T18:09:38.603Z,4.00
2023-03-17T18:12:06.146Z,3.95
2023-03-17T18:14:33.365Z,4.10
2023-03-17T18:17:00.721Z,4.05
2023-03-17T18:19:27.957Z,3.83
2023-03-17T18:21:55.296Z,3.15
2023-03-17T18:24:22.590Z,3.95
2023-03-17T18:26:49.823Z,5.65
2023-03-17T18:29:17.047Z,5.57
2023-03-17T18:31:48.154Z,5.70
2023-03-17T18:34:19.114Z,4.88
2023-03-17T18:36:48.088Z,4.78
2023-03-17T18:39:16.185Z,4.95
2023-03-17T18:41:43.789Z,4.78
2023-03-17T18:44:11.454Z,4.25
2023-03-17T18:46:39.122Z,3.75
2023-03-17T18:49:07.283Z,3.58
2023-03-17T18:51:34.807Z,3.97
2023-03-17T18:54:03.040Z,3.75
2023-03-17T18:56:30.384Z,3.92
2023-03-17T18:58:57.981Z,4.03
2023-03-17T19:01:25.969Z,4.22
2023-03-17T19:03:53.454Z,4.75
2023-03-17T19:06:21.562Z,5.15
2023-03-17T19:08:49.052Z,4.65
2023-03-17T19:11:18.446Z,4.93
2023-03-17T19:13:46.538Z,5.80
2023-03-17T19:16:14.375Z,6.43
2023-03-17T19:18:42.387Z,6.07
2023-03-17T19:21:10.288Z,6.93
2023-03-17T19:23:38.348Z,7.78
2023-03-17T19:26:05.994Z,6.07
2023-03-17T19:28:33.540Z,6.63
2023-03-17T19:31:01.298Z,6.32
2023-03-17T19:33:29.039Z,5.78
2023-03-17T19:35:58.674Z,5.50
2023-03-17T19:38:27.114Z,5.60
2023-03-17T19:40:54.577Z,4.95
2023-03-17T19:43:39.079Z,4.75
2023-03-17T19:46:08.156Z,4.85
2023-03-17T19:48:36.612Z,4.90
2023-03-17T19:51:04.558Z,4.80
2023-03-17T19:53:31.937Z,4.80
2023-03-17T19:55:59.193Z,4.80
2023-03-17T19:58:27.068Z,5.07
2023-03-17T20:00:54.343Z,4.60
2023-03-17T20:03:23.108Z,5.45
2023-03-17T20:05:54.477Z,4.43
2023-03-17T20:08:22.625Z,5.32
2023-03-17T20:10:56.027Z,4.68
2023-03-17T20:13:23.312Z,5.00
2023-03-17T20:15:51.700Z,4.43
2023-03-17T20:18:19.974Z,5.00
2023-03-17T20:20:51.278Z,4.32
2023-03-17T20:23:18.525Z,4.50
2023-03-17T20:25:45.787Z,4.35
2023-03-17T20:28:13.480Z,4.40
2023-03-17T20:30:40.911Z,4.28
2023-03-17T20:33:09.936Z,4.20
2023-03-17T20:35:38.883Z,4.15
2023-03-17T20:38:07.119Z,3.70
2023-03-17T20:40:34.669Z,4.28
2023-03-17T20:43:01.916Z,4.20
2023-03-17T20:45:29.402Z,4.53
2023-03-17T20:47:56.658Z,4.00
2023-03-17T20:50:24.830Z,4.50
2023-03-17T20:52:52.470Z,4.15
2023-03-17T20:55:20.230Z,3.92
2023-03-17T20:57:48.755Z,4.55
2023-03-17T21:00:18.040Z,4.55
2023-03-17T21:02:46.370Z,4.22
2023-03-17T21:05:15.485Z,4.28
2023-03-17T21:07:43.497Z,3.97
2023-03-17T21:10:11.304Z,4.28
2023-03-17T21:12:38.586Z,3.40
2023-03-17T21:15:08.051Z,3.15
2023-03-17T21:17:35.261Z,3.58
2023-03-17T21:20:03.410Z,2.95
2023-03-17T21:22:32.406Z,2.80
2023-03-17T21:24:59.778Z,3.20
2023-03-17T21:27:27.079Z,3.30
2023-03-17T21:29:54.337Z,3.58
2023-03-17T21:32:21.570Z,3.70
2023-03-17T21:34:48.883Z,3.40
2023-03-17T21:37:18.402Z,3.03
2023-03-17T21:39:45.964Z,3.20
2023-03-17T21:42:13.645Z,2.45
2023-03-17T21:44:41.028Z,2.58
2023-03-17T21:47:08.876Z,2.75
2023-03-17T21:49:36.172Z,2.80
2023-03-17T21:52:03.611Z,2.70
2023-03-17T21:54:31.638Z,2.70
2023-03-17T21:56:58.941Z,2.47
2023-03-17T21:59:29.496Z,2.83
2023-03-17T22:01:56.921Z,2.70
2023-03-17T22:04:24.259Z,2.35
2023-03-17T22:06:52.285Z,2.30
2023-03-17T22:09:19.604Z,2.47
2023-03-17T22:11:47.026Z,2.60
2023-03-17T22:14:19.968Z,2.58
2023-03-17T22:16:47.908Z,2.33
2023-03-17T22:19:15.382Z,2.10
2023-03-17T22:21:43.013Z,2.58
2023-03-17T22:24:10.259Z,2.60
2023-03-17T22:26:37.971Z,2.90
2023-03-17T22:29:06.328Z,3.10
2023-03-17T22:31:34.862Z,2.38
2023-03-17T22:34:02.403Z,2.80
2023-03-17T22:36:30.136Z,2.50
2023-03-17T22:38:58.428Z,2.67
2023-03-17T22:41:27.297Z,2.65
2023-03-17T22:43:54.543Z,2.22
2023-03-17T22:46:22.265Z,2.58
2023-03-17T22:48:50.089Z,2.78
2023-03-17T22:51:18.822Z,2.60
2023-03-17T22:53:46.469Z,3.08
2023-03-17T22:56:14.533Z,2.67
2023-03-17T22:58:42.132Z,3.80
2023-03-17T23:01:10.530Z,2.63
2023-03-17T23:03:37.866Z,2.47
2023-03-17T23:06:05.825Z,2.33
2023-03-17T23:08:35.416Z,2.45
2023-03-17T23:11:04.675Z,2.53
2023-03-17T23:13:32.010Z,2.42
2023-03-17T23:15:59.608Z,2.35
2023-03-17T23:18:26.949Z,2.40
2023-03-17T23:20:54.318Z,2.63
2023-03-17T23:23:21.547Z,2.50
2023-03-17T23:25:48.896Z,2.10
2023-03-17T23:28:16.167Z,2.60
2023-03-17T23:30:46.134Z,2.97
2023-03-17T23:33:14.114Z,2.53
2023-03-17T23:35:41.689Z,2.20
2023-03-17T23:38:09.617Z,2.35
2023-03-17T23:40:37.182Z,2.38
2023-03-17T23:43:05.607Z,2.65
2023-03-17T23:45:34.388Z,2.88
2023-03-17T23:48:01.864Z,2.30
2023-03-17T23:50:29.812Z,2.80
2023-03-17T23:52:57.289Z,2.45
2023-03-17T23:55:24.514Z,3.53
2023-03-17T23:57:52.092Z,2.92
